sensor_id;sensor_type;location;lat;lon;timestamp;pressure;altitude;pressure_sealevel;temperature;humidity
25658;BME280;13517;59.320;18.042;2022-11-04T00:01:19;100844.34;;;7.06;100.00
25658;BME280;13517;59.320;18.042;2022-11-04T00:03:45;100855.81;;;7.10;100.00
25658;BME280;13517;59.320;18.042;2022-11-04T00:06:10;100834.13;;;6.95;100.00
25658;BME280;13517;59.320;18.042;2022-11-04T00:08:36;100820.97;;;6.89;100.00
25658;BME280;13517;59.320;18.042;2022-11-04T00:11:01;100861.47;;;7.04;100.00
25658;BME280;13517;59.320;18.042;2022-11-04T00:13:46;100858.41;;;6.92;100.00
25658;BME280;13517;59.320;18.042;2022-11-04T00:16:12;100862.84;;;6.93;100.00
25658;BME280;13517;59.320;18.042;2022-11-04T00:18:56;100852.91;;;6.95;100.00
25658;BME280;13517;59.320;18.042;2022-11-04T00:21:22;100849.69;;;6.87;100.00
25658;BME280;13517;59.320;18.042;2022-11-04T00:24:07;100812.28;;;6.65;100.00
25658;BME280;13517;59.320;18.042;2022-11-04T00:26:53;100830.84;;;6.70;100.00
25658;BME280;13517;59.320;18.042;2022-11-04T00:29:37;100847.53;;;6.76;100.00
25658;BME280;13517;59.320;18.042;2022-11-04T00:32:02;100842.47;;;6.70;100.00
25658;BME280;13517;59.320;18.042;2022-11-04T00:34:46;100842.31;;;6.73;100.00
25658;BME280;13517;59.320;18.042;2022-11-04T00:37:12;100841.31;;;6.76;100.00
25658;BME280;13517;59.320;18.042;2022-11-04T00:39:37;100835.50;;;6.66;100.00
25658;BME280;13517;59.320;18.042;2022-11-04T00:42:03;100799.47;;;6.51;100.00
25658;BME280;13517;59.320;18.042;2022-11-04T00:44:28;100772.81;;;6.48;100.00
25658;BME280;13517;59.320;18.042;2022-11-04T00:46:54;100812.56;;;6.78;100.00
25658;BME280;13517;59.320;18.042;2022-11-04T00:49:19;100837.53;;;6.99;100.00
25658;BME280;13517;59.320;18.042;2022-11-04T00:51:45;100828.09;;;6.90;100.00
25658;BME280;13517;59.320;18.042;2022-11-04T00:54:10;100803.56;;;6.79;100.00
25658;BME280;13517;59.320;18.042;2022-11-04T00:56:39;100788.34;;;6.60;100.00
25658;BME280;13517;59.320;18.042;2022-11-04T00:59:05;100824.81;;;6.84;100.00
25658;BME280;13517;59.320;18.042;2022-11-04T01:01:30;100851.75;;;7.01;100.00
25658;BME280;13517;59.320;18.042;2022-11-04T01:03:56;100858.41;;;7.12;100.00
25658;BME280;13517;59.320;18.042;2022-11-04T01:06:23;100850.44;;;7.10;100.00
25658;BME280;13517;59.320;18.042;2022-11-04T01:08:57;100843.09;;;6.94;100.00
25658;BME280;13517;59.320;18.042;2022-11-04T01:11:23;100803.94;;;6.71;100.00
25658;BME280;13517;59.320;18.042;2022-11-04T01:13:49;100853.94;;;6.93;100.00
25658;BME280;13517;59.320;18.042;2022-11-04T01:16:15;100852.97;;;6.94;100.00
25658;BME280;13517;59.320;18.042;2022-11-04T01:18:41;100832.22;;;6.78;100.00
25658;BME280;13517;59.320;18.042;2022-11-04T01:21:08;100859.31;;;6.93;100.00
25658;BME280;13517;59.320;18.042;2022-11-04T01:23:35;100838.66;;;6.93;100.00
25658;BME280;13517;59.320;18.042;2022-11-04T01:26:04;100846.09;;;7.07;100.00
25658;BME280;13517;59.320;18.042;2022-11-04T01:28:29;100852.03;;;7.14;100.00
25658;BME280;13517;59.320;18.042;2022-11-04T01:30:55;100807.31;;;6.94;100.00
25658;BME280;13517;59.320;18.042;2022-11-04T01:33:20;100851.78;;;7.19;100.00
25658;BME280;13517;59.320;18.042;2022-11-04T01:35:45;100851.78;;;7.19;100.00
25658;BME280;13517;59.320;18.042;2022-11-04T01:38:11;100810.50;;;7.02;100.00
25658;BME280;13517;59.320;18.042;2022-11-04T01:40:38;100821.13;;;7.05;100.00
25658;BME280;13517;59.320;18.042;2022-11-04T01:43:10;100815.31;;;6.95;100.00
25658;BME280;13517;59.320;18.042;2022-11-04T01:45:37;100809.66;;;7.02;100.00
25658;BME280;13517;59.320;18.042;2022-11-04T01:48:05;100801.22;;;6.90;100.00
25658;BME280;13517;59.320;18.042;2022-11-04T01:50:34;100821.25;;;7.02;100.00
25658;BME280;13517;59.320;18.042;2022-11-04T01:53:15;100834.69;;;7.02;100.00
25658;BME280;13517;59.320;18.042;2022-11-04T01:55:50;100842.38;;;7.10;100.00
25658;BME280;13517;59.320;18.042;2022-11-04T01:58:17;100827.41;;;7.04;100.00
25658;BME280;13517;59.320;18.042;2022-11-04T02:00:45;100846.50;;;7.17;100.00
25658;BME280;13517;59.320;18.042;2022-11-04T02:03:17;100828.06;;;7.09;100.00
25658;BME280;13517;59.320;18.042;2022-11-04T02:05:45;100849.03;;;7.20;100.00
25658;BME280;13517;59.320;18.042;2022-11-04T02:08:11;100817.47;;;7.06;100.00
25658;BME280;13517;59.320;18.042;2022-11-04T02:10:40;100841.69;;;7.24;100.00
25658;BME280;13517;59.320;18.042;2022-11-04T02:13:06;100777.13;;;6.89;100.00
25658;BME280;13517;59.320;18.042;2022-11-04T02:32:05;100829.63;;;6.77;100.00
25658;BME280;13517;59.320;18.042;2022-11-04T02:34:39;100837.50;;;6.80;100.00
25658;BME280;13517;59.320;18.042;2022-11-04T02:42:21;100827.00;;;6.75;100.00
25658;BME280;13517;59.320;18.042;2022-11-04T02:45:09;100833.59;;;6.68;100.00
25658;BME280;13517;59.320;18.042;2022-11-04T02:47:42;100835.13;;;6.74;100.00
25658;BME280;13517;59.320;18.042;2022-11-04T02:50:34;100828.88;;;6.73;100.00
25658;BME280;13517;59.320;18.042;2022-11-04T02:53:16;100825.03;;;6.60;100.00
25658;BME280;13517;59.320;18.042;2022-11-04T02:55:48;100827.22;;;6.71;100.00
25658;BME280;13517;59.320;18.042;2022-11-04T02:58:23;100812.63;;;6.57;100.00
25658;BME280;13517;59.320;18.042;2022-11-04T03:00:51;100834.81;;;6.80;100.00
25658;BME280;13517;59.320;18.042;2022-11-04T03:03:21;100818.00;;;6.76;100.00
25658;BME280;13517;59.320;18.042;2022-11-04T03:05:52;100830.13;;;6.85;100.00
25658;BME280;13517;59.320;18.042;2022-11-04T03:08:37;100790.88;;;6.63;100.00
25658;BME280;13517;59.320;18.042;2022-11-04T03:11:09;100821.59;;;6.94;100.00
25658;BME280;13517;59.320;18.042;2022-11-04T03:13:43;100831.88;;;7.05;100.00
25658;BME280;13517;59.320;18.042;2022-11-04T03:16:21;100798.69;;;7.06;100.00
25658;BME280;13517;59.320;18.042;2022-11-04T03:21:23;100827.19;;;7.28;100.00
25658;BME280;13517;59.320;18.042;2022-11-04T03:23:50;100802.56;;;7.18;100.00
25658;BME280;13517;59.320;18.042;2022-11-04T03:34:34;100804.56;;;6.95;100.00
25658;BME280;13517;59.320;18.042;2022-11-04T03:37:00;100808.06;;;6.98;100.00
25658;BME280;13517;59.320;18.042;2022-11-04T03:39:26;100783.09;;;6.76;100.00
25658;BME280;13517;59.320;18.042;2022-11-04T03:41:54;100785.88;;;6.75;100.00
25658;BME280;13517;59.320;18.042;2022-11-04T03:44:21;100822.44;;;6.97;100.00
25658;BME280;13517;59.320;18.042;2022-11-04T03:46:47;100805.88;;;6.87;100.00
25658;BME280;13517;59.320;18.042;2022-11-04T03:49:14;100796.50;;;6.76;100.00
25658;BME280;13517;59.320;18.042;2022-11-04T03:51:39;100826.19;;;6.92;100.00
25658;BME280;13517;59.320;18.042;2022-11-04T03:54:05;100788.19;;;6.63;100.00
25658;BME280;13517;59.320;18.042;2022-11-04T04:05:58;100802.38;;;6.65;100.00
25658;BME280;13517;59.320;18.042;2022-11-04T04:08:40;100823.28;;;6.78;100.00
25658;BME280;13517;59.320;18.042;2022-11-04T04:16:28;100805.28;;;6.80;100.00
25658;BME280;13517;59.320;18.042;2022-11-04T04:21:38;100817.47;;;6.87;100.00
25658;BME280;13517;59.320;18.042;2022-11-04T04:24:06;100806.59;;;6.90;100.00
25658;BME280;13517;59.320;18.042;2022-11-04T04:26:53;100782.22;;;6.76;100.00
25658;BME280;13517;59.320;18.042;2022-11-04T04:29:38;100816.47;;;6.90;100.00
25658;BME280;13517;59.320;18.042;2022-11-04T04:32:05;100824.47;;;6.91;100.00
25658;BME280;13517;59.320;18.042;2022-11-04T04:34:32;100818.38;;;6.88;100.00
25658;BME280;13517;59.320;18.042;2022-11-04T04:37:22;100828.09;;;6.90;100.00
25658;BME280;13517;59.320;18.042;2022-11-04T04:39:51;100827.06;;;6.93;100.00
25658;BME280;13517;59.320;18.042;2022-11-04T04:42:36;100829.66;;;6.94;100.00
25658;BME280;13517;59.320;18.042;2022-11-04T04:45:26;100827.63;;;7.00;100.00
25658;BME280;13517;59.320;18.042;2022-11-04T04:47:55;100829.31;;;7.02;100.00
25658;BME280;13517;59.320;18.042;2022-11-04T04:50:21;100806.09;;;7.01;100.00
25658;BME280;13517;59.320;18.042;2022-11-04T04:52:49;100829.56;;;7.15;100.00
25658;BME280;13517;59.320;18.042;2022-11-04T04:55:16;100824.84;;;7.20;100.00
25658;BME280;13517;59.320;18.042;2022-11-04T04:57:42;100719.56;;;6.58;100.00
25658;BME280;13517;59.320;18.042;2022-11-04T05:00:10;100796.13;;;7.03;100.00
25658;BME280;13517;59.320;18.042;2022-11-04T05:02:36;100816.84;;;7.19;100.00
25658;BME280;13517;59.320;18.042;2022-11-04T05:05:02;100813.38;;;7.17;100.00
25658;BME280;13517;59.320;18.042;2022-11-04T05:07:28;100803.66;;;7.14;100.00
25658;BME280;13517;59.320;18.042;2022-11-04T05:09:53;100803.66;;;7.14;100.00
25658;BME280;13517;59.320;18.042;2022-11-04T05:12:19;100808.81;;;7.19;100.00
25658;BME280;13517;59.320;18.042;2022-11-04T05:14:44;100821.09;;;7.25;100.00
25658;BME280;13517;59.320;18.042;2022-11-04T05:17:10;100832.78;;;7.24;100.00
25658;BME280;13517;59.320;18.042;2022-11-04T05:19:35;100819.88;;;7.13;100.00
25658;BME280;13517;59.320;18.042;2022-11-04T05:22:01;100821.38;;;7.18;100.00
25658;BME280;13517;59.320;18.042;2022-11-04T05:24:26;100820.66;;;7.15;100.00
25658;BME280;13517;59.320;18.042;2022-11-04T05:26:52;100805.84;;;7.06;100.00
25658;BME280;13517;59.320;18.042;2022-11-04T05:29:17;100839.53;;;7.13;100.00
25658;BME280;13517;59.320;18.042;2022-11-04T05:31:43;100782.16;;;6.77;100.00
25658;BME280;13517;59.320;18.042;2022-11-04T05:34:10;100741.38;;;6.50;100.00
25658;BME280;13517;59.320;18.042;2022-11-04T05:36:36;100789.63;;;6.71;100.00
25658;BME280;13517;59.320;18.042;2022-11-04T05:39:02;100805.44;;;6.77;100.00
25658;BME280;13517;59.320;18.042;2022-11-04T05:41:27;100780.34;;;6.59;100.00
25658;BME280;13517;59.320;18.042;2022-11-04T05:43:55;100810.31;;;6.68;100.00
25658;BME280;13517;59.320;18.042;2022-11-04T05:46:22;100829.91;;;6.71;100.00
25658;BME280;13517;59.320;18.042;2022-11-04T05:48:47;100789.91;;;6.45;100.00
25658;BME280;13517;59.320;18.042;2022-11-04T05:51:18;100833.03;;;6.61;100.00
25658;BME280;13517;59.320;18.042;2022-11-04T05:53:45;100802.38;;;6.46;100.00
25658;BME280;13517;59.320;18.042;2022-11-04T05:56:10;100820.84;;;6.54;100.00
25658;BME280;13517;59.320;18.042;2022-11-04T05:58:36;100799.97;;;6.40;100.00
25658;BME280;13517;59.320;18.042;2022-11-04T06:01:27;100815.06;;;6.43;100.00
25658;BME280;13517;59.320;18.042;2022-11-04T06:03:54;100810.88;;;6.37;100.00
25658;BME280;13517;59.320;18.042;2022-11-04T06:06:20;100788.16;;;6.25;100.00
25658;BME280;13517;59.320;18.042;2022-11-04T06:08:46;100822.28;;;6.42;100.00
25658;BME280;13517;59.320;18.042;2022-11-04T06:11:12;100817.03;;;6.39;100.00
25658;BME280;13517;59.320;18.042;2022-11-04T06:13:37;100830.38;;;6.40;100.00
25658;BME280;13517;59.320;18.042;2022-11-04T06:16:02;100791.25;;;6.16;100.00
25658;BME280;13517;59.320;18.042;2022-11-04T06:18:28;100789.28;;;6.19;100.00
25658;BME280;13517;59.320;18.042;2022-11-04T06:21:30;100821.66;;;6.35;100.00
25658;BME280;13517;59.320;18.042;2022-11-04T06:23:57;100823.28;;;6.39;100.00
25658;BME280;13517;59.320;18.042;2022-11-04T06:26:27;100809.19;;;6.34;100.00
25658;BME280;13517;59.320;18.042;2022-11-04T06:28:52;100782.84;;;6.23;100.00
25658;BME280;13517;59.320;18.042;2022-11-04T06:31:18;100829.22;;;6.46;100.00
25658;BME280;13517;59.320;18.042;2022-11-04T06:33:44;100807.03;;;6.43;100.00
25658;BME280;13517;59.320;18.042;2022-11-04T06:36:12;100819.94;;;6.53;100.00
25658;BME280;13517;59.320;18.042;2022-11-04T06:38:39;100822.50;;;6.57;100.00
25658;BME280;13517;59.320;18.042;2022-11-04T06:41:06;100811.97;;;6.52;100.00
25658;BME280;13517;59.320;18.042;2022-11-04T06:43:32;100783.97;;;6.38;100.00
25658;BME280;13517;59.320;18.042;2022-11-04T06:45:59;100819.59;;;6.61;100.00
25658;BME280;13517;59.320;18.042;2022-11-04T06:48:26;100815.03;;;6.63;100.00
25658;BME280;13517;59.320;18.042;2022-11-04T06:50:52;100785.44;;;6.46;100.00
25658;BME280;13517;59.320;18.042;2022-11-04T06:53:17;100801.09;;;6.55;100.00
25658;BME280;13517;59.320;18.042;2022-11-04T06:55:43;100801.09;;;6.55;100.00
25658;BME280;13517;59.320;18.042;2022-11-04T06:58:09;100806.31;;;6.58;100.00
25658;BME280;13517;59.320;18.042;2022-11-04T07:00:35;100824.47;;;6.72;100.00
25658;BME280;13517;59.320;18.042;2022-11-04T07:03:01;100815.63;;;6.70;100.00
25658;BME280;13517;59.320;18.042;2022-11-04T07:05:26;100834.19;;;6.75;100.00
25658;BME280;13517;59.320;18.042;2022-11-04T07:07:52;100822.00;;;6.67;100.00
25658;BME280;13517;59.320;18.042;2022-11-04T07:10:17;100830.69;;;6.73;100.00
25658;BME280;13517;59.320;18.042;2022-11-04T07:12:43;100834.97;;;6.77;100.00
25658;BME280;13517;59.320;18.042;2022-11-04T07:15:09;100821.84;;;6.71;100.00
25658;BME280;13517;59.320;18.042;2022-11-04T07:17:34;100803.44;;;6.63;100.00
25658;BME280;13517;59.320;18.042;2022-11-04T07:20:00;100842.69;;;6.85;100.00
25658;BME280;13517;59.320;18.042;2022-11-04T07:22:25;100830.34;;;6.80;100.00
25658;BME280;13517;59.320;18.042;2022-11-04T07:24:51;100847.97;;;6.86;100.00
25658;BME280;13517;59.320;18.042;2022-11-04T07:27:16;100826.94;;;6.77;100.00
25658;BME280;13517;59.320;18.042;2022-11-04T07:29:42;100820.53;;;6.79;100.00
25658;BME280;13517;59.320;18.042;2022-11-04T07:32:07;100821.41;;;6.80;100.00
25658;BME280;13517;59.320;18.042;2022-11-04T07:34:33;100818.81;;;6.78;100.00
25658;BME280;13517;59.320;18.042;2022-11-04T07:36:58;100811.53;;;6.80;100.00
25658;BME280;13517;59.320;18.042;2022-11-04T07:39:23;100829.09;;;6.88;100.00
25658;BME280;13517;59.320;18.042;2022-11-04T07:41:49;100842.69;;;7.04;100.00
25658;BME280;13517;59.320;18.042;2022-11-04T07:44:14;100843.34;;;7.09;100.00
25658;BME280;13517;59.320;18.042;2022-11-04T07:46:40;100826.41;;;7.07;100.00
25658;BME280;13517;59.320;18.042;2022-11-04T07:49:05;100772.44;;;6.75;100.00
25658;BME280;13517;59.320;18.042;2022-11-04T07:51:32;100844.63;;;7.19;100.00
25658;BME280;13517;59.320;18.042;2022-11-04T07:53:58;100828.66;;;7.16;100.00
25658;BME280;13517;59.320;18.042;2022-11-04T07:56:25;100838.88;;;7.27;100.00
25658;BME280;13517;59.320;18.042;2022-11-04T07:58:50;100845.75;;;7.33;100.00
25658;BME280;13517;59.320;18.042;2022-11-04T08:01:19;100850.03;;;7.37;100.00
25658;BME280;13517;59.320;18.042;2022-11-04T08:03:44;100846.72;;;7.32;100.00
25658;BME280;13517;59.320;18.042;2022-11-04T08:06:13;100844.50;;;7.40;100.00
25658;BME280;13517;59.320;18.042;2022-11-04T08:08:39;100833.09;;;7.35;100.00
25658;BME280;13517;59.320;18.042;2022-11-04T08:11:13;100847.53;;;7.52;100.00
25658;BME280;13517;59.320;18.042;2022-11-04T08:13:38;100849.56;;;7.46;100.00
25658;BME280;13517;59.320;18.042;2022-11-04T08:16:15;100848.31;;;7.54;100.00
25658;BME280;13517;59.320;18.042;2022-11-04T08:18:42;100844.44;;;7.59;100.00
25658;BME280;13517;59.320;18.042;2022-11-04T08:21:09;100848.72;;;7.63;100.00
25658;BME280;13517;59.320;18.042;2022-11-04T08:23:35;100835.91;;;7.69;100.00
25658;BME280;13517;59.320;18.042;2022-11-04T08:26:01;100839.31;;;7.72;100.00
25658;BME280;13517;59.320;18.042;2022-11-04T08:28:26;100829.38;;;7.74;100.00
25658;BME280;13517;59.320;18.042;2022-11-04T08:30:59;100824.78;;;7.76;100.00
25658;BME280;13517;59.320;18.042;2022-11-04T08:33:27;100826.97;;;7.86;100.00
25658;BME280;13517;59.320;18.042;2022-11-04T08:35:54;100833.63;;;7.96;100.00
25658;BME280;13517;59.320;18.042;2022-11-04T08:38:20;100840.50;;;8.02;100.00
25658;BME280;13517;59.320;18.042;2022-11-04T08:40:45;100802.69;;;7.87;100.00
25658;BME280;13517;59.320;18.042;2022-11-04T08:43:10;100801.28;;;7.98;100.00
25658;BME280;13517;59.320;18.042;2022-11-04T08:45:41;100835.66;;;8.26;100.00
25658;BME280;13517;59.320;18.042;2022-11-04T08:48:07;100798.84;;;8.27;100.00
25658;BME280;13517;59.320;18.042;2022-11-04T08:50:32;100824.19;;;8.56;100.00
25658;BME280;13517;59.320;18.042;2022-11-04T08:52:58;100820.22;;;8.64;100.00
25658;BME280;13517;59.320;18.042;2022-11-04T08:55:23;100803.72;;;8.70;100.00
25658;BME280;13517;59.320;18.042;2022-11-04T08:57:48;100809.38;;;8.81;100.00
25658;BME280;13517;59.320;18.042;2022-11-04T09:00:15;100823.38;;;9.04;100.00
25658;BME280;13517;59.320;18.042;2022-11-04T09:02:41;100817.03;;;9.05;100.00
25658;BME280;13517;59.320;18.042;2022-11-04T09:05:06;100806.94;;;9.09;100.00
25658;BME280;13517;59.320;18.042;2022-11-04T09:07:32;100801.97;;;9.17;100.00
25658;BME280;13517;59.320;18.042;2022-11-04T09:09:59;100757.38;;;8.95;100.00
25658;BME280;13517;59.320;18.042;2022-11-04T09:12:26;100802.50;;;9.24;100.00
25658;BME280;13517;59.320;18.042;2022-11-04T09:14:52;100783.09;;;9.17;100.00
25658;BME280;13517;59.320;18.042;2022-11-04T09:17:17;100770.09;;;9.09;100.00
25658;BME280;13517;59.320;18.042;2022-11-04T09:19:43;100781.00;;;9.22;100.00
25658;BME280;13517;59.320;18.042;2022-11-04T09:22:08;100790.84;;;9.23;100.00
25658;BME280;13517;59.320;18.042;2022-11-04T09:24:33;100805.88;;;9.27;100.00
25658;BME280;13517;59.320;18.042;2022-11-04T09:26:59;100819.78;;;9.36;100.00
25658;BME280;13517;59.320;18.042;2022-11-04T09:29:24;100786.75;;;9.16;100.00
25658;BME280;13517;59.320;18.042;2022-11-04T09:31:50;100820.88;;;9.48;100.00
25658;BME280;13517;59.320;18.042;2022-11-04T09:34:16;100806.22;;;9.37;100.00
25658;BME280;13517;59.320;18.042;2022-11-04T09:36:42;100827.66;;;9.55;100.00
25658;BME280;13517;59.320;18.042;2022-11-04T09:39:08;100796.03;;;9.43;100.00
25658;BME280;13517;59.320;18.042;2022-11-04T09:41:50;100810.63;;;9.54;100.00
25658;BME280;13517;59.320;18.042;2022-11-04T09:47:03;100817.19;;;9.65;100.00
25658;BME280;13517;59.320;18.042;2022-11-04T09:49:41;100808.97;;;9.52;100.00
25658;BME280;13517;59.320;18.042;2022-11-04T09:52:17;100825.38;;;9.63;100.00
25658;BME280;13517;59.320;18.042;2022-11-04T09:54:52;100825.97;;;9.68;100.00
25658;BME280;13517;59.320;18.042;2022-11-04T09:57:19;100828.84;;;9.65;100.00
25658;BME280;13517;59.320;18.042;2022-11-04T09:59:45;100826.31;;;9.62;100.00
25658;BME280;13517;59.320;18.042;2022-11-04T10:29:40;100839.69;;;9.80;100.00
25658;BME280;13517;59.320;18.042;2022-11-04T10:32:17;100827.53;;;9.73;100.00
25658;BME280;13517;59.320;18.042;2022-11-04T10:34:53;100839.69;;;9.80;100.00
25658;BME280;13517;59.320;18.042;2022-11-04T10:37:23;100846.63;;;9.84;100.00
25658;BME280;13517;59.320;18.042;2022-11-04T10:39:51;100845.56;;;9.87;100.00
25658;BME280;13517;59.320;18.042;2022-11-04T10:42:20;100830.63;;;9.81;100.00
25658;BME280;13517;59.320;18.042;2022-11-04T10:44:50;100850.97;;;9.87;100.00
25658;BME280;13517;59.320;18.042;2022-11-04T10:52:41;100823.50;;;9.80;100.00
25658;BME280;13517;59.320;18.042;2022-11-04T10:55:25;100823.50;;;9.80;100.00
25658;BME280;13517;59.320;18.042;2022-11-04T10:57:56;100824.91;;;9.71;100.00
25658;BME280;13517;59.320;18.042;2022-11-04T11:00:39;100838.22;;;9.74;100.00
25658;BME280;13517;59.320;18.042;2022-11-04T11:06:08;100836.41;;;9.75;100.00
25658;BME280;13517;59.320;18.042;2022-11-04T11:08:34;100831.72;;;9.62;100.00
25658;BME280;13517;59.320;18.042;2022-11-04T11:11:02;100821.41;;;9.54;100.00
25658;BME280;13517;59.320;18.042;2022-11-04T11:13:35;100795.09;;;9.27;100.00
25658;BME280;13517;59.320;18.042;2022-11-04T11:16:26;100834.84;;;9.40;100.00
25658;BME280;13517;59.320;18.042;2022-11-04T11:19:14;100842.03;;;9.39;100.00
25658;BME280;13517;59.320;18.042;2022-11-04T11:21:47;100830.47;;;9.37;100.00
25658;BME280;13517;59.320;18.042;2022-11-04T11:24:24;100830.28;;;9.40;100.00
25658;BME280;13517;59.320;18.042;2022-11-04T11:26:53;100801.34;;;9.28;100.00
25658;BME280;13517;59.320;18.042;2022-11-04T11:29:28;100842.56;;;9.46;100.00
25658;BME280;13517;59.320;18.042;2022-11-04T11:31:56;100823.94;;;9.42;100.00
25658;BME280;13517;59.320;18.042;2022-11-04T11:34:31;100812.22;;;9.43;100.00
25658;BME280;13517;59.320;18.042;2022-11-04T11:36:58;100810.28;;;9.45;100.00
25658;BME280;13517;59.320;18.042;2022-11-04T11:39:29;100817.06;;;9.52;100.00
25658;BME280;13517;59.320;18.042;2022-11-04T11:41:57;100837.31;;;9.59;100.00
25658;BME280;13517;59.320;18.042;2022-11-04T11:44:33;100828.63;;;9.54;100.00
25658;BME280;13517;59.320;18.042;2022-11-04T11:47:08;100798.22;;;9.36;100.00
25658;BME280;13517;59.320;18.042;2022-11-04T11:49:41;100813.47;;;9.51;100.00
25658;BME280;13517;59.320;18.042;2022-11-04T11:54:43;100827.50;;;9.58;100.00
25658;BME280;13517;59.320;18.042;2022-11-04T11:57:28;100808.03;;;9.37;100.00
25658;BME280;13517;59.320;18.042;2022-11-04T12:00:01;100827.84;;;9.52;100.00
25658;BME280;13517;59.320;18.042;2022-11-04T12:05:14;100818.47;;;9.43;100.00
25658;BME280;13517;59.320;18.042;2022-11-04T12:10:44;100818.03;;;9.35;100.00
25658;BME280;13517;59.320;18.042;2022-11-04T12:13:39;100814.66;;;9.31;100.00
25658;BME280;13517;59.320;18.042;2022-11-04T12:16:32;100820.22;;;9.28;100.00
25658;BME280;13517;59.320;18.042;2022-11-04T12:21:56;100819.28;;;9.29;100.00
25658;BME280;13517;59.320;18.042;2022-11-04T12:25:13;100822.75;;;9.31;100.00
25658;BME280;13517;59.320;18.042;2022-11-04T12:30:09;100824.47;;;9.32;100.00
25658;BME280;13517;59.320;18.042;2022-11-04T12:41:20;100799.47;;;9.14;100.00
25658;BME280;13517;59.320;18.042;2022-11-04T12:47:29;100807.34;;;9.17;100.00
25658;BME280;13517;59.320;18.042;2022-11-04T12:49:32;100802.16;;;9.14;100.00
25658;BME280;13517;59.320;18.042;2022-11-04T12:55:12;100801.53;;;9.09;100.00
25658;BME280;13517;59.320;18.042;2022-11-04T13:00:30;100795.66;;;9.02;100.00
25658;BME280;13517;59.320;18.042;2022-11-04T13:05:55;100802.16;;;9.14;100.00
25658;BME280;13517;59.320;18.042;2022-11-04T13:08:23;100799.47;;;9.14;100.00
25658;BME280;13517;59.320;18.042;2022-11-04T13:13:50;100766.72;;;8.90;100.00
25658;BME280;13517;59.320;18.042;2022-11-04T13:16:17;100790.69;;;8.94;100.00
25658;BME280;13517;59.320;18.042;2022-11-04T13:18:44;100786.88;;;8.98;100.00
25658;BME280;13517;59.320;18.042;2022-11-04T13:21:18;100803.19;;;8.95;100.00
25658;BME280;13517;59.320;18.042;2022-11-04T13:24:01;100809.47;;;8.96;100.00
25658;BME280;13517;59.320;18.042;2022-11-04T13:26:29;100802.25;;;8.96;100.00
25658;BME280;13517;59.320;18.042;2022-11-04T13:29:20;100800.78;;;8.91;100.00
25658;BME280;13517;59.320;18.042;2022-11-04T13:34:27;100777.13;;;8.64;100.00
25658;BME280;13517;59.320;18.042;2022-11-04T13:39:43;100796.59;;;8.69;100.00
25658;BME280;13517;59.320;18.042;2022-11-04T13:42:32;100806.06;;;8.76;100.00
25658;BME280;13517;59.320;18.042;2022-11-04T13:45:11;100799.47;;;8.66;100.00
25658;BME280;13517;59.320;18.042;2022-11-04T13:47:57;100798.84;;;8.61;100.00
25658;BME280;13517;59.320;18.042;2022-11-04T13:52:53;100789.19;;;8.56;100.00
25658;BME280;13517;59.320;18.042;2022-11-04T13:55:19;100801.88;;;8.54;100.00
25658;BME280;13517;59.320;18.042;2022-11-04T13:57:56;100786.22;;;8.45;100.00
25658;BME280;13517;59.320;18.042;2022-11-04T14:00:25;100759.59;;;8.23;100.00
25658;BME280;13517;59.320;18.042;2022-11-04T14:02:55;100795.66;;;8.36;100.00
25658;BME280;13517;59.320;18.042;2022-11-04T14:18:47;100809.31;;;8.15;100.00
25658;BME280;13517;59.320;18.042;2022-11-04T14:21:15;100793.66;;;8.06;100.00
25658;BME280;13517;59.320;18.042;2022-11-04T14:23:45;100792.97;;;8.02;100.00
25658;BME280;13517;59.320;18.042;2022-11-04T14:26:13;100814.31;;;8.06;100.00
25658;BME280;13517;59.320;18.042;2022-11-04T14:28:43;100806.56;;;7.99;100.00
25658;BME280;13517;59.320;18.042;2022-11-04T14:31:11;100806.16;;;7.89;100.00
25658;BME280;13517;59.320;18.042;2022-11-04T14:33:51;100792.50;;;7.76;100.00
25658;BME280;13517;59.320;18.042;2022-11-04T14:44:17;100806.56;;;7.64;100.00
25658;BME280;13517;59.320;18.042;2022-11-04T14:46:47;100798.75;;;7.59;100.00
25658;BME280;13517;59.320;18.042;2022-11-04T14:52:03;100799.94;;;7.54;100.00
25658;BME280;13517;59.320;18.042;2022-11-04T14:54:30;100780.94;;;7.39;100.00
25658;BME280;13517;59.320;18.042;2022-11-04T14:57:13;100790.69;;;7.42;100.00
25658;BME280;13517;59.320;18.042;2022-11-04T14:59:39;100799.47;;;7.45;100.00
25658;BME280;13517;59.320;18.042;2022-11-04T15:02:15;100815.13;;;7.55;100.00
25658;BME280;13517;59.320;18.042;2022-11-04T15:04:46;100805.25;;;7.55;100.00
25658;BME280;13517;59.320;18.042;2022-11-04T15:07:40;100798.50;;;7.46;100.00
25658;BME280;13517;59.320;18.042;2022-11-04T15:12:44;100800.78;;;7.54;100.00
25658;BME280;13517;59.320;18.042;2022-11-04T15:15:45;100801.66;;;7.55;100.00
25658;BME280;13517;59.320;18.042;2022-11-04T15:18:20;100796.66;;;7.47;100.00
25658;BME280;13517;59.320;18.042;2022-11-04T15:20:47;100801.84;;;7.52;100.00
25658;BME280;13517;59.320;18.042;2022-11-04T15:23:16;100786.47;;;7.36;100.00
25658;BME280;13517;59.320;18.042;2022-11-04T15:25:47;100796.91;;;7.42;100.00
25658;BME280;13517;59.320;18.042;2022-11-04T15:28:22;100809.41;;;7.43;100.00
25658;BME280;13517;59.320;18.042;2022-11-04T15:31:00;100798.97;;;7.37;100.00
25658;BME280;13517;59.320;18.042;2022-11-04T15:33:26;100810.22;;;7.45;100.00
25658;BME280;13517;59.320;18.042;2022-11-04T15:35:53;100805.69;;;7.46;100.00